Time;durP1;ratioP1;P1;durP2;ratioP2;P2;SDS_P1;SDS_P2;PMS_P1;PMS_P2;Temp;Humidity;BMP_temperature;BMP_pressure;BME280_temperature;BME280_humidity;BME280_pressure;Samples;Min_cycle;Max_cycle;Signal;HPM_P1;HPM_P2
2022/01/26 00:07:49;;;;;;;17.47;10.97;;;4.20;99.90;;;;;;5034911;28;20216;-72
2022/01/26 00:10:16;;;;;;;21.00;11.30;;;4.20;99.90;;;;;;5045377;28;20617;-70
2022/01/26 00:12:44;;;;;;;18.17;11.40;;;4.20;99.90;;;;;;5054491;28;20202;-71
2022/01/26 00:15:11;;;;;;;17.80;11.93;;;4.20;99.90;;;;;;5050768;28;20202;-71
2022/01/26 00:17:38;;;;;;;20.37;11.57;;;4.20;99.90;;;;;;5051956;28;20225;-71
2022/01/26 00:20:14;;;;;;;20.77;12.90;;;4.10;99.90;;;;;;5045332;28;20248;-72
2022/01/26 00:22:55;;;;;;;20.97;12.60;;;4.10;99.90;;;;;;5049209;28;20210;-70
2022/01/26 00:25:35;;;;;;;19.77;12.33;;;4.10;99.90;;;;;;5046662;28;20217;-71
2022/01/26 00:28:31;;;;;;;19.40;11.60;;;4.10;99.90;;;;;;5041269;28;20651;-71
2022/01/26 00:39:18;;;;;;;21.97;11.33;;;4.10;99.90;;;;;;5028756;28;20201;-71
2022/01/26 00:41:46;;;;;;;21.20;10.83;;;4.10;99.90;;;;;;5053972;28;20292;-71
2022/01/26 00:44:14;;;;;;;18.17;11.13;;;4.10;99.90;;;;;;5042972;28;20868;-72
2022/01/26 00:46:48;;;;;;;20.17;11.47;;;4.10;99.90;;;;;;5039476;28;20226;-71
2022/01/26 00:49:16;;;;;;;15.73;10.90;;;4.10;99.90;;;;;;5054751;28;20206;-72
2022/01/26 00:51:45;;;;;;;17.27;10.70;;;4.10;99.90;;;;;;5054232;28;20210;-71
2022/01/26 00:54:12;;;;;;;16.47;10.00;;;4.10;99.90;;;;;;5040701;28;20217;-70
2022/01/26 00:56:39;;;;;;;17.67;10.97;;;4.10;99.90;;;;;;5048137;28;20252;-71
2022/01/26 00:59:07;;;;;;;18.50;11.73;;;4.10;99.90;;;;;;5054341;28;20209;-70
2022/01/26 01:01:34;;;;;;;17.17;11.00;;;4.10;99.90;;;;;;5050500;28;20237;-71
2022/01/26 01:04:05;;;;;;;21.83;12.30;;;4.10;99.90;;;;;;5053518;28;20210;-71
2022/01/26 01:06:39;;;;;;;19.40;10.90;;;4.00;99.90;;;;;;5051846;28;20285;-72
2022/01/26 01:09:06;;;;;;;18.20;10.90;;;4.10;99.90;;;;;;5053193;28;20222;-71
2022/01/26 01:11:34;;;;;;;23.37;12.03;;;4.10;99.90;;;;;;5053103;28;20212;-70
2022/01/26 01:14:01;;;;;;;20.13;11.40;;;4.00;99.90;;;;;;5046541;28;20538;-71
2022/01/26 01:16:29;;;;;;;18.30;10.97;;;4.10;99.90;;;;;;5048913;28;20218;-70
2022/01/26 01:19:03;;;;;;;16.63;10.43;;;4.10;99.90;;;;;;5051286;28;20238;-72
2022/01/26 01:29:58;;;;;;;15.53;10.20;;;4.10;99.90;;;;;;5052518;28;20283;-71
2022/01/26 01:32:34;;;;;;;18.63;11.23;;;4.10;99.90;;;;;;5042396;28;20579;-70
2022/01/26 01:35:06;;;;;;;20.53;10.93;;;4.10;99.90;;;;;;5044737;28;20251;-71
2022/01/26 01:37:33;;;;;;;16.83;10.00;;;4.10;99.90;;;;;;5041568;28;20214;-72
2022/01/26 01:40:01;;;;;;;19.63;11.10;;;4.10;99.90;;;;;;5054183;28;20229;-71
2022/01/26 01:42:30;;;;;;;18.27;10.57;;;4.10;99.90;;;;;;5053842;28;20210;-71
2022/01/26 01:44:57;;;;;;;17.37;10.53;;;4.10;99.90;;;;;;5049240;28;20206;-71
2022/01/26 01:47:26;;;;;;;18.00;11.27;;;4.10;99.90;;;;;;5052442;28;20665;-71
2022/01/26 01:49:53;;;;;;;16.93;11.23;;;4.10;99.90;;;;;;5049704;28;20202;-72
2022/01/26 01:52:20;;;;;;;20.73;11.07;;;4.10;99.90;;;;;;5045774;28;20715;-73
2022/01/26 01:54:52;;;;;;;15.57;10.47;;;4.10;99.90;;;;;;5045647;28;20308;-71
2022/01/26 01:57:23;;;;;;;17.07;11.43;;;4.10;99.90;;;;;;5039472;28;20440;-72
2022/01/26 01:59:51;;;;;;;17.03;11.00;;;4.10;99.90;;;;;;5044077;28;20210;-72
2022/01/26 02:02:18;;;;;;;22.10;11.23;;;4.10;99.90;;;;;;5050207;28;20592;-71
2022/01/26 02:04:46;;;;;;;17.67;10.70;;;4.10;99.90;;;;;;5045640;28;20796;-70
2022/01/26 02:07:13;;;;;;;21.03;13.07;;;4.10;99.90;;;;;;5048736;28;20228;-71
2022/01/26 02:09:40;;;;;;;22.47;12.00;;;4.10;99.90;;;;;;5053988;28;20304;-71
2022/01/26 02:12:14;;;;;;;16.37;10.73;;;4.10;99.90;;;;;;5052646;28;20219;-72
2022/01/26 02:14:45;;;;;;;18.70;11.47;;;4.10;99.90;;;;;;5046388;28;20198;-71
2022/01/26 02:17:22;;;;;;;18.73;10.43;;;4.20;99.90;;;;;;5039453;28;20211;-72
2022/01/26 02:20:12;;;;;;;18.53;11.90;;;4.10;99.90;;;;;;5036072;28;20250;-71
2022/01/26 02:50:42;;;;;;;20.80;12.10;;;4.00;99.90;;;;;;5030117;28;20605;-71
2022/01/26 02:53:27;;;;;;;20.30;11.77;;;4.00;99.90;;;;;;5048998;28;20209;-70
2022/01/26 02:55:59;;;;;;;21.43;12.03;;;3.90;99.90;;;;;;5050663;28;20202;-71
2022/01/26 03:01:31;;;;;;;18.83;11.33;;;3.90;99.90;;;;;;5045075;28;20314;-72
2022/01/26 03:04:05;;;;;;;23.53;12.53;;;3.90;99.90;;;;;;5053405;28;20286;-70
2022/01/26 03:06:39;;;;;;;19.83;11.33;;;3.90;99.90;;;;;;5057495;28;20283;-71
2022/01/26 03:09:11;;;;;;;20.23;12.07;;;3.90;99.90;;;;;;5058392;28;20594;-71
2022/01/26 03:11:41;;;;;;;20.67;11.37;;;3.90;99.90;;;;;;5052493;28;20210;-71
2022/01/26 03:14:17;;;;;;;20.63;11.83;;;3.90;99.90;;;;;;5057078;28;20571;-71
2022/01/26 03:16:49;;;;;;;22.07;11.60;;;3.90;99.90;;;;;;5053115;28;20226;-71
2022/01/26 03:19:21;;;;;;;20.57;11.60;;;3.90;99.90;;;;;;5051860;28;20241;-71
2022/01/26 03:22:03;;;;;;;18.60;11.47;;;3.90;99.90;;;;;;5045123;28;20224;-71
2022/01/26 03:30:01;;;;;;;14.23;10.37;;;3.90;99.90;;;;;;5052315;28;20242;-71
2022/01/26 03:32:51;;;;;;;20.70;11.40;;;3.90;99.90;;;;;;5037544;28;20203;-71
2022/01/26 03:35:28;;;;;;;17.07;11.00;;;3.90;99.90;;;;;;5044551;28;20234;-70
2022/01/26 03:37:56;;;;;;;21.67;11.93;;;3.90;99.90;;;;;;5056794;28;20269;-71
2022/01/26 03:40:30;;;;;;;17.47;11.77;;;3.90;99.90;;;;;;5056036;28;20681;-71
2022/01/26 03:42:59;;;;;;;23.57;11.30;;;3.90;99.90;;;;;;5055549;28;20214;-71
2022/01/26 03:45:26;;;;;;;22.83;11.87;;;3.90;99.90;;;;;;5053128;28;20309;-71
2022/01/26 03:47:54;;;;;;;16.63;10.83;;;3.90;99.90;;;;;;5050632;28;20280;-71
2022/01/26 03:50:21;;;;;;;19.67;11.27;;;3.90;99.90;;;;;;5054985;28;20237;-70
2022/01/26 03:52:48;;;;;;;16.90;10.67;;;3.90;99.90;;;;;;5050783;28;20296;-70
2022/01/26 03:55:15;;;;;;;20.83;11.73;;;3.90;99.90;;;;;;5051495;28;20309;-71
2022/01/26 03:57:42;;;;;;;20.00;11.20;;;3.90;99.90;;;;;;5049046;28;20233;-71
2022/01/26 04:00:12;;;;;;;21.03;11.20;;;3.90;99.90;;;;;;5050873;28;20624;-71
2022/01/26 04:02:39;;;;;;;18.60;11.20;;;3.90;99.90;;;;;;5043822;28;20424;-71
2022/01/26 04:05:10;;;;;;;15.30;10.70;;;3.90;99.90;;;;;;5044309;28;20626;-71
2022/01/26 04:07:37;;;;;;;18.83;11.57;;;3.90;99.90;;;;;;5055232;28;20222;-70
2022/01/26 04:10:14;;;;;;;16.40;10.97;;;3.90;99.90;;;;;;5047884;28;20308;-70
2022/01/26 04:12:40;;;;;;;20.80;10.87;;;3.90;99.90;;;;;;5054192;28;20205;-71
2022/01/26 04:15:17;;;;;;;21.07;12.67;;;3.90;99.90;;;;;;5056668;28;20297;-71
2022/01/26 04:17:46;;;;;;;19.87;12.10;;;3.90;99.90;;;;;;5053318;28;20237;-71
2022/01/26 04:20:13;;;;;;;19.70;12.03;;;3.80;99.90;;;;;;5038483;28;20234;-70
2022/01/26 04:22:50;;;;;;;22.47;11.77;;;3.90;99.90;;;;;;5037812;28;20233;-72
2022/01/26 04:25:22;;;;;;;19.13;11.13;;;3.80;99.90;;;;;;5055879;28;20205;-71
2022/01/26 04:27:52;;;;;;;19.97;10.67;;;3.80;99.90;;;;;;5055620;28;20242;-71
2022/01/26 04:30:19;;;;;;;19.03;11.07;;;3.80;99.90;;;;;;5055831;28;20283;-70
2022/01/26 04:32:47;;;;;;;19.37;11.10;;;3.80;99.90;;;;;;5054815;28;20209;-70
2022/01/26 04:35:14;;;;;;;16.33;10.27;;;3.80;99.90;;;;;;5050661;28;20364;-71
2022/01/26 04:38:02;;;;;;;15.63;10.57;;;3.80;99.90;;;;;;5054871;28;20703;-69
2022/01/26 04:40:36;;;;;;;15.43;9.93;;;3.70;99.90;;;;;;5055193;28;20201;-71
2022/01/26 04:43:07;;;;;;;17.27;10.20;;;3.70;99.90;;;;;;5044556;28;20251;-71
2022/01/26 04:45:34;;;;;;;16.63;10.50;;;3.70;99.90;;;;;;5054617;28;20210;-71
2022/01/26 04:48:03;;;;;;;16.33;10.13;;;3.80;99.90;;;;;;5054278;28;20222;-71
2022/01/26 04:50:30;;;;;;;18.40;10.80;;;3.70;99.90;;;;;;5049471;28;20233;-71
2022/01/26 04:52:56;;;;;;;17.67;10.20;;;3.70;99.90;;;;;;5055034;28;20220;-70
2022/01/26 04:55:24;;;;;;;16.73;10.63;;;3.60;99.90;;;;;;5051898;28;20210;-71
2022/01/26 04:57:51;;;;;;;16.67;9.93;;;3.70;99.90;;;;;;5053972;28;20583;-71
2022/01/26 05:00:18;;;;;;;14.73;9.50;;;3.60;99.90;;;;;;5048924;28;20206;-71
2022/01/26 05:02:45;;;;;;;14.40;9.47;;;3.70;99.90;;;;;;5055237;28;20245;-71
2022/01/26 05:05:13;;;;;;;16.13;8.40;;;3.60;99.90;;;;;;5054444;28;20698;-71
2022/01/26 05:07:40;;;;;;;13.30;7.37;;;3.60;99.90;;;;;;5048225;28;20317;-71
2022/01/26 05:10:07;;;;;;;12.53;7.97;;;3.60;99.90;;;;;;5054161;28;20227;-70
2022/01/26 05:12:35;;;;;;;12.57;7.53;;;3.60;99.90;;;;;;5041406;28;20297;-70
2022/01/26 05:15:02;;;;;;;11.57;7.20;;;3.60;99.90;;;;;;5055182;28;20214;-71
2022/01/26 05:17:29;;;;;;;12.73;7.30;;;3.60;99.90;;;;;;5050249;28;20277;-70
2022/01/26 05:19:59;;;;;;;9.43;6.57;;;3.50;99.90;;;;;;5042943;28;20288;-70
2022/01/26 05:22:29;;;;;;;9.40;6.10;;;3.60;99.90;;;;;;5048509;28;20244;-70
2022/01/26 05:24:56;;;;;;;11.97;6.70;;;3.60;99.90;;;;;;5042661;28;20217;-70
2022/01/26 05:27:23;;;;;;;11.33;6.37;;;3.60;99.90;;;;;;5042265;28;20231;-71
2022/01/26 05:29:50;;;;;;;9.73;6.07;;;3.50;99.90;;;;;;5040002;28;20208;-70
2022/01/26 05:32:17;;;;;;;7.93;5.73;;;3.60;99.90;;;;;;5054890;28;20240;-70
2022/01/26 05:34:44;;;;;;;9.03;5.93;;;3.50;99.90;;;;;;5052773;28;20202;-71
2022/01/26 05:37:11;;;;;;;10.80;6.67;;;3.60;99.90;;;;;;5046755;28;20233;-71
2022/01/26 05:39:39;;;;;;;9.53;5.43;;;3.60;99.90;;;;;;5049568;28;20210;-71
2022/01/26 05:42:07;;;;;;;7.70;5.33;;;3.60;99.90;;;;;;5054408;28;20229;-71
2022/01/26 05:44:34;;;;;;;8.67;5.60;;;3.50;99.90;;;;;;5040494;28;20630;-70
2022/01/26 05:47:01;;;;;;;10.63;6.50;;;3.50;99.90;;;;;;5036894;28;20223;-69
2022/01/26 05:49:28;;;;;;;11.60;6.20;;;3.50;99.90;;;;;;5046755;28;20301;-70
2022/01/26 05:51:55;;;;;;;9.87;6.47;;;3.50;99.90;;;;;;5048059;28;20229;-69
2022/01/26 05:54:22;;;;;;;11.63;6.93;;;3.50;99.90;;;;;;5054016;28;20703;-71
2022/01/26 05:56:50;;;;;;;11.60;6.30;;;3.50;99.90;;;;;;5050674;28;20283;-70
2022/01/26 05:59:19;;;;;;;12.70;7.50;;;3.50;99.90;;;;;;5053141;28;20237;-70
2022/01/26 06:01:46;;;;;;;15.43;7.00;;;3.50;99.90;;;;;;5051486;28;20308;-70
2022/01/26 06:04:13;;;;;;;13.53;7.33;;;3.60;99.90;;;;;;5057745;28;20237;-70
2022/01/26 06:06:40;;;;;;;12.40;8.27;;;3.50;99.90;;;;;;5058070;28;20245;-70
2022/01/26 06:09:07;;;;;;;14.67;7.93;;;3.50;99.90;;;;;;5057276;28;20297;-70
2022/01/26 06:11:34;;;;;;;14.87;8.60;;;3.50;99.90;;;;;;5050789;28;20292;-70
2022/01/26 06:14:02;;;;;;;13.97;8.43;;;3.50;99.90;;;;;;5057003;28;20202;-70
2022/01/26 06:16:29;;;;;;;15.53;8.90;;;3.60;99.90;;;;;;5053759;28;20206;-69
2022/01/26 06:18:56;;;;;;;14.30;8.60;;;3.60;99.90;;;;;;5045101;28;20470;-70
2022/01/26 06:21:23;;;;;;;15.30;9.00;;;3.60;99.90;;;;;;5059203;28;20210;-70
2022/01/26 06:23:50;;;;;;;15.60;7.97;;;3.60;99.90;;;;;;5043231;28;20619;-70
2022/01/26 06:26:17;;;;;;;15.13;8.67;;;3.60;99.90;;;;;;5055866;28;20217;-70
2022/01/26 06:28:43;;;;;;;13.63;7.93;;;3.60;99.90;;;;;;5058196;28;20682;-71
2022/01/26 06:31:15;;;;;;;14.63;8.97;;;3.60;99.90;;;;;;5049189;28;20215;-70
2022/01/26 06:33:43;;;;;;;16.70;8.93;;;3.50;99.90;;;;;;5056336;28;20608;-71
2022/01/26 06:36:13;;;;;;;13.53;8.17;;;3.50;99.90;;;;;;5057514;28;20531;-70
2022/01/26 06:38:40;;;;;;;14.87;8.70;;;3.50;99.90;;;;;;5057937;28;20212;-70
2022/01/26 06:41:07;;;;;;;10.33;7.73;;;3.50;99.90;;;;;;5055548;28;20238;-70
2022/01/26 06:43:35;;;;;;;14.80;8.80;;;3.50;99.90;;;;;;5051134;28;20294;-71
2022/01/26 06:46:05;;;;;;;13.10;7.83;;;3.50;99.90;;;;;;5052402;28;20234;-70
2022/01/26 06:48:46;;;;;;;14.40;8.30;;;3.40;99.90;;;;;;5052479;28;20317;-70
2022/01/26 06:51:14;;;;;;;12.87;8.60;;;3.40;99.90;;;;;;5053356;28;20265;-72
2022/01/26 06:53:43;;;;;;;13.10;8.83;;;3.40;99.90;;;;;;5042648;28;20683;-71
2022/01/26 06:56:10;;;;;;;15.77;8.03;;;3.40;99.90;;;;;;5043877;28;20276;-71
2022/01/26 06:58:38;;;;;;;13.27;8.67;;;3.40;99.90;;;;;;5054136;28;20587;-70
2022/01/26 07:01:05;;;;;;;17.10;8.40;;;3.40;99.90;;;;;;5054118;28;20206;-70
2022/01/26 07:03:33;;;;;;;16.03;9.20;;;3.40;99.90;;;;;;5043457;28;20659;-71
2022/01/26 07:06:00;;;;;;;13.70;9.27;;;3.40;99.90;;;;;;5054817;28;20266;-71
2022/01/26 07:08:27;;;;;;;15.97;8.50;;;3.50;99.90;;;;;;5055038;28;20233;-70
2022/01/26 07:10:54;;;;;;;16.43;10.00;;;3.50;99.90;;;;;;5055952;28;20202;-70
2022/01/26 07:13:23;;;;;;;15.03;9.03;;;3.50;99.90;;;;;;5055578;28;20210;-71
2022/01/26 07:21:25;;;;;;;13.70;7.87;;;3.60;99.90;;;;;;5054775;28;20205;-70
2022/01/26 07:23:53;;;;;;;16.53;9.47;;;3.50;99.90;;;;;;5056125;28;20608;-70
2022/01/26 07:26:20;;;;;;;12.70;8.67;;;3.50;99.90;;;;;;5055314;28;20237;-70
2022/01/26 07:28:47;;;;;;;12.73;8.33;;;3.50;99.90;;;;;;5043988;28;20274;-71
2022/01/26 07:31:14;;;;;;;15.17;9.53;;;3.50;99.90;;;;;;5043233;28;20202;-71
2022/01/26 07:33:43;;;;;;;15.13;9.30;;;3.50;99.90;;;;;;5047121;28;20241;-70
2022/01/26 07:36:10;;;;;;;20.70;10.17;;;3.60;99.90;;;;;;5046962;28;20203;-70
2022/01/26 07:38:37;;;;;;;14.20;9.27;;;3.60;99.90;;;;;;5042605;28;20275;-72
2022/01/26 07:41:05;;;;;;;18.23;9.53;;;3.60;99.90;;;;;;5046359;28;20209;-74
2022/01/26 07:43:32;;;;;;;16.20;9.73;;;3.60;99.90;;;;;;5045505;28;20671;-74
2022/01/26 07:45:59;;;;;;;16.03;10.30;;;3.60;99.90;;;;;;5041385;28;20202;-73
2022/01/26 07:48:27;;;;;;;16.00;8.97;;;3.60;99.90;;;;;;5048082;28;20649;-74
2022/01/26 07:50:56;;;;;;;13.63;9.03;;;3.60;99.90;;;;;;5049874;28;20655;-76
2022/01/26 07:53:23;;;;;;;17.13;9.60;;;3.70;99.90;;;;;;5054641;28;20221;-73
2022/01/26 07:55:50;;;;;;;18.40;9.33;;;3.60;99.90;;;;;;5051214;28;20209;-76
2022/01/26 07:58:19;;;;;;;18.93;9.10;;;3.60;99.90;;;;;;5048236;28;20251;-76
2022/01/26 08:00:47;;;;;;;16.03;8.10;;;3.60;99.90;;;;;;5044563;28;20630;-76
2022/01/26 08:03:15;;;;;;;15.10;8.33;;;3.60;99.90;;;;;;5057535;28;20225;-76
2022/01/26 08:05:43;;;;;;;13.87;8.23;;;3.60;99.90;;;;;;5057258;28;20276;-76
2022/01/26 08:08:11;;;;;;;14.23;7.43;;;3.60;99.90;;;;;;5054494;28;20218;-74
2022/01/26 08:10:40;;;;;;;11.07;7.30;;;3.60;99.90;;;;;;5044200;28;20209;-74
2022/01/26 08:13:08;;;;;;;11.33;7.20;;;3.70;99.90;;;;;;5052808;28;20253;-75
2022/01/26 08:15:35;;;;;;;12.20;7.10;;;3.60;99.90;;;;;;5052527;28;20189;-75
2022/01/26 08:18:05;;;;;;;11.47;6.53;;;3.70;99.90;;;;;;5062624;28;20198;-74
2022/01/26 08:20:33;;;;;;;10.40;6.87;;;3.70;99.90;;;;;;5050982;28;20202;-75
2022/01/26 08:23:00;;;;;;;10.53;7.33;;;3.70;99.90;;;;;;5055997;28;20273;-73
2022/01/26 08:25:29;;;;;;;10.60;6.83;;;3.80;99.90;;;;;;5056172;28;20210;-76
2022/01/26 08:28:03;;;;;;;14.50;7.80;;;3.90;99.90;;;;;;5055669;28;20222;-78
2022/01/26 08:30:35;;;;;;;10.13;6.03;;;3.90;99.90;;;;;;5047569;28;20256;-75
2022/01/26 08:33:03;;;;;;;10.80;6.40;;;4.00;99.90;;;;;;5054053;28;20202;-76
2022/01/26 08:35:30;;;;;;;11.73;7.27;;;4.00;99.90;;;;;;5047748;28;20236;-75
2022/01/26 08:37:57;;;;;;;13.03;6.83;;;4.10;99.90;;;;;;5050754;28;20240;-74
2022/01/26 08:40:25;;;;;;;12.50;7.20;;;4.10;99.90;;;;;;5056587;28;20666;-75
2022/01/26 08:42:54;;;;;;;13.40;7.57;;;4.10;99.90;;;;;;5052509;28;20214;-74
2022/01/26 08:45:22;;;;;;;13.30;7.10;;;4.10;99.90;;;;;;5049995;28;20210;-75
2022/01/26 08:47:49;;;;;;;19.20;9.07;;;4.10;99.90;;;;;;5056756;28;20198;-75
2022/01/26 08:50:17;;;;;;;12.70;8.40;;;4.10;99.90;;;;;;5054994;28;20213;-77
2022/01/26 08:52:47;;;;;;;16.00;9.17;;;4.10;99.90;;;;;;5052436;28;20229;-77
2022/01/26 08:55:15;;;;;;;13.87;8.50;;;4.10;99.90;;;;;;5060096;28;20229;-78
2022/01/26 08:57:42;;;;;;;13.87;8.07;;;4.20;99.90;;;;;;5050708;28;20264;-76
2022/01/26 09:00:12;;;;;;;17.60;9.90;;;4.30;99.90;;;;;;5048770;28;20202;-74
2022/01/26 09:02:39;;;;;;;15.57;8.67;;;4.30;99.90;;;;;;5048094;28;20202;-76
2022/01/26 09:05:08;;;;;;;16.93;9.83;;;4.40;99.90;;;;;;5053174;28;20275;-73
2022/01/26 09:07:35;;;;;;;14.33;9.30;;;4.40;99.90;;;;;;5048580;28;20297;-76
2022/01/26 09:10:03;;;;;;;19.20;10.23;;;4.40;99.90;;;;;;5047778;28;20226;-74
2022/01/26 09:12:34;;;;;;;14.60;9.60;;;4.40;99.90;;;;;;5051976;28;20630;-74
2022/01/26 09:15:03;;;;;;;19.47;10.73;;;4.50;99.90;;;;;;5055222;28;20588;-76
2022/01/26 09:17:33;;;;;;;14.77;9.13;;;4.50;99.90;;;;;;5053993;28;20214;-74
2022/01/26 09:20:02;;;;;;;18.13;10.27;;;4.60;99.90;;;;;;5046021;28;20230;-74
2022/01/26 09:22:31;;;;;;;17.57;11.20;;;4.70;99.90;;;;;;5048370;28;20210;-75
2022/01/26 09:24:58;;;;;;;17.27;10.13;;;4.70;99.90;;;;;;5051679;28;20245;-76
2022/01/26 09:27:25;;;;;;;16.93;10.27;;;4.80;99.90;;;;;;5046236;28;20746;-73
2022/01/26 09:29:52;;;;;;;18.30;10.27;;;4.80;99.90;;;;;;5046542;28;20279;-74
2022/01/26 09:32:19;;;;;;;19.17;11.27;;;4.80;99.90;;;;;;5049701;28;20206;-74
2022/01/26 09:34:48;;;;;;;21.43;10.97;;;4.80;99.90;;;;;;5048996;28;20201;-73
2022/01/26 09:37:17;;;;;;;20.20;11.20;;;4.70;99.90;;;;;;5045019;28;20206;-74
2022/01/26 09:39:47;;;;;;;20.30;11.30;;;4.70;99.90;;;;;;5049357;28;20666;-74
2022/01/26 09:42:15;;;;;;;20.00;11.43;;;4.60;99.90;;;;;;5047055;28;20186;-73
2022/01/26 09:44:43;;;;;;;21.87;12.40;;;4.60;99.90;;;;;;5052547;28;20718;-73
2022/01/26 09:47:12;;;;;;;19.43;11.90;;;4.60;99.90;;;;;;5045847;28;20205;-74
2022/01/26 09:49:40;;;;;;;17.17;11.17;;;4.60;99.90;;;;;;5050813;28;20264;-74
2022/01/26 09:52:19;;;;;;;19.70;11.83;;;4.60;99.90;;;;;;5054547;28;20213;-71
2022/01/26 09:54:47;;;;;;;19.07;11.80;;;4.60;99.90;;;;;;5055211;28;20244;-73
2022/01/26 09:57:14;;;;;;;18.87;10.90;;;4.60;99.90;;;;;;5040588;28;20241;-73
2022/01/26 09:59:41;;;;;;;21.40;12.10;;;4.60;99.90;;;;;;5053641;28;20289;-79
2022/01/26 10:02:08;;;;;;;17.77;11.27;;;4.70;99.90;;;;;;5053216;28;20202;-73
2022/01/26 10:04:39;;;;;;;20.17;11.50;;;4.70;99.90;;;;;;5048918;28;20260;-73
2022/01/26 10:07:17;;;;;;;18.47;11.13;;;4.70;99.90;;;;;;5048734;28;20198;-71
2022/01/26 10:10:01;;;;;;;19.90;11.60;;;4.70;99.90;;;;;;5036402;28;20245;-73
2022/01/26 10:15:28;;;;;;;19.13;11.13;;;4.80;99.90;;;;;;5053371;28;20252;-74
2022/01/26 10:18:12;;;;;;;16.77;10.43;;;4.90;99.90;;;;;;5042961;28;20202;-74
2022/01/26 10:20:42;;;;;;;17.57;11.20;;;5.00;99.90;;;;;;5044038;28;20209;-73
2022/01/26 10:23:16;;;;;;;17.43;9.93;;;5.00;99.90;;;;;;5046548;28;20245;-74
2022/01/26 10:25:44;;;;;;;19.90;11.37;;;5.10;99.90;;;;;;5042309;28;20604;-74
2022/01/26 10:28:13;;;;;;;18.93;11.53;;;5.10;99.90;;;;;;5050625;28;20220;-74
2022/01/26 10:30:45;;;;;;;16.10;10.50;;;5.30;99.90;;;;;;5048626;28;20269;-73
2022/01/26 10:33:13;;;;;;;17.13;9.23;;;5.30;99.90;;;;;;5047508;28;20643;-74
2022/01/26 10:35:40;;;;;;;14.73;8.60;;;5.40;99.90;;;;;;5051136;28;20214;-74
2022/01/26 10:38:07;;;;;;;18.53;9.50;;;5.40;99.90;;;;;;5047912;28;20237;-74
2022/01/26 10:40:39;;;;;;;18.07;9.70;;;5.50;99.90;;;;;;5049291;28;20230;-74
2022/01/26 10:43:10;;;;;;;14.27;7.50;;;5.50;99.90;;;;;;5054585;28;20210;-73
2022/01/26 10:45:57;;;;;;;16.67;8.73;;;5.50;99.90;;;;;;5050806;28;20214;-74
2022/01/26 10:48:30;;;;;;;10.70;7.87;;;5.40;99.90;;;;;;5043256;28;20209;-74
2022/01/26 10:54:10;;;;;;;13.53;8.77;;;5.30;99.90;;;;;;5043660;28;20185;-73
2022/01/26 10:56:39;;;;;;;14.67;8.47;;;5.30;99.90;;;;;;5042421;28;20226;-73
2022/01/26 10:59:06;;;;;;;13.30;7.40;;;5.20;99.90;;;;;;5049327;28;20198;-73
2022/01/26 11:01:36;;;;;;;17.20;8.20;;;5.20;99.90;;;;;;5047100;28;20205;-74
2022/01/26 11:04:03;;;;;;;17.37;7.87;;;5.20;99.90;;;;;;5040549;28;20323;-74
2022/01/26 11:06:30;;;;;;;12.23;7.07;;;5.10;99.90;;;;;;5047793;28;20186;-75
2022/01/26 11:09:02;;;;;;;12.20;8.10;;;5.10;99.90;;;;;;5054759;28;20309;-74
2022/01/26 11:11:29;;;;;;;10.10;7.03;;;5.10;99.90;;;;;;5057951;28;20730;-76
2022/01/26 11:13:57;;;;;;;15.40;6.93;;;5.10;99.90;;;;;;5044398;28;20524;-76
2022/01/26 11:16:24;;;;;;;9.87;6.10;;;5.10;99.90;;;;;;5044577;28;20289;-75
2022/01/26 11:18:58;;;;;;;12.10;6.67;;;5.00;99.90;;;;;;5050623;28;20317;-75
2022/01/26 11:21:27;;;;;;;11.20;6.00;;;4.90;99.90;;;;;;5047864;28;20243;-76
2022/01/26 11:24:06;;;;;;;11.97;5.53;;;4.80;99.90;;;;;;5040973;28;20329;-76
2022/01/26 11:26:33;;;;;;;7.70;5.40;;;4.80;99.90;;;;;;5037656;28;20216;-74
2022/01/26 11:29:02;;;;;;;11.53;6.03;;;4.80;99.90;;;;;;5051938;28;20225;-75
2022/01/26 11:31:32;;;;;;;11.17;6.03;;;4.70;99.90;;;;;;5047385;28;20198;-75
2022/01/26 11:34:00;;;;;;;10.30;6.10;;;4.70;99.90;;;;;;5047615;28;20205;-75
2022/01/26 11:36:31;;;;;;;11.43;5.97;;;4.70;99.90;;;;;;5058595;28;20233;-75
2022/01/26 11:42:21;;;;;;;11.03;6.60;;;4.70;99.90;;;;;;5054220;28;20200;-75
2022/01/26 11:45:08;;;;;;;13.07;7.93;;;4.60;99.90;;;;;;5051307;28;20210;-75
2022/01/26 11:47:38;;;;;;;12.63;7.57;;;4.60;99.90;;;;;;5052081;28;20250;-74
2022/01/26 11:50:12;;;;;;;14.90;8.77;;;4.60;99.90;;;;;;5054448;28;20214;-74
2022/01/26 11:52:40;;;;;;;16.57;9.80;;;4.50;99.90;;;;;;5055325;28;20678;-74
2022/01/26 11:55:27;;;;;;;15.00;10.43;;;4.50;99.90;;;;;;5051195;28;20261;-73
2022/01/26 11:57:55;;;;;;;18.67;10.50;;;4.40;99.90;;;;;;5051542;28;20228;-73
2022/01/26 12:03:29;;;;;;;20.50;11.70;;;4.30;99.90;;;;;;5123260;27;20951;-73
2022/01/26 12:05:58;;;;;;;20.60;10.77;;;4.10;99.90;;;;;;5111394;28;20277;-74
2022/01/26 12:08:36;;;;;;;18.17;11.80;;;4.10;99.90;;;;;;5113247;28;20211;-74
2022/01/26 12:11:04;;;;;;;21.63;11.53;;;4.10;99.90;;;;;;5113182;28;20200;-74
2022/01/26 12:13:33;;;;;;;16.90;10.47;;;4.10;99.90;;;;;;5101957;28;20211;-72
2022/01/26 12:16:07;;;;;;;18.10;10.83;;;4.00;99.90;;;;;;5108927;28;20208;-69
2022/01/26 12:18:41;;;;;;;14.30;9.53;;;4.10;99.90;;;;;;5099762;28;20641;-68
2022/01/26 12:35:38;;;;;;;10.93;7.60;;;3.80;99.90;;;;;;5082615;28;20193;-75
2022/01/26 12:38:11;;;;;;;11.27;7.87;;;3.80;99.90;;;;;;5089477;28;20250;-74
2022/01/26 12:43:38;;;;;;;10.13;7.43;;;3.80;99.90;;;;;;5109898;28;20214;-76
2022/01/26 12:46:07;;;;;;;10.83;7.57;;;3.80;99.90;;;;;;5109416;28;20231;-73
2022/01/26 12:48:37;;;;;;;11.23;7.33;;;3.80;99.90;;;;;;5110325;28;20636;-71
2022/01/26 12:51:07;;;;;;;15.63;8.23;;;3.70;99.90;;;;;;5111425;28;20204;-72
2022/01/26 12:53:36;;;;;;;11.37;8.47;;;3.70;99.90;;;;;;5111124;28;20271;-73
2022/01/26 12:56:05;;;;;;;12.13;9.37;;;3.60;99.90;;;;;;5110910;28;20265;-73
2022/01/26 12:58:34;;;;;;;13.00;8.83;;;3.60;99.90;;;;;;5104961;28;20232;-73
2022/01/26 13:01:04;;;;;;;12.37;8.80;;;3.60;99.90;;;;;;5102974;28;20223;-73
2022/01/26 13:03:32;;;;;;;12.10;8.70;;;3.60;99.90;;;;;;5111452;28;20307;-73
2022/01/26 13:06:12;;;;;;;11.77;8.93;;;3.60;99.90;;;;;;5111920;28;20204;-77
2022/01/26 13:08:44;;;;;;;15.37;10.27;;;3.60;99.90;;;;;;5111222;28;20216;-77
2022/01/26 13:11:12;;;;;;;14.23;9.77;;;3.70;99.90;;;;;;5103041;28;20443;-72
2022/01/26 13:13:39;;;;;;;13.33;9.37;;;3.70;99.90;;;;;;5101055;28;20247;-73
2022/01/26 13:16:17;;;;;;;17.33;10.70;;;3.70;99.90;;;;;;5096750;28;20212;-75
2022/01/26 13:19:09;;;;;;;17.03;10.23;;;3.80;99.90;;;;;;5095189;28;20208;-75
2022/01/26 13:21:53;;;;;;;15.37;9.77;;;3.80;99.90;;;;;;5091421;28;20228;-75
2022/01/26 13:24:35;;;;;;;13.20;9.33;;;3.80;99.90;;;;;;5095072;28;20219;-75
2022/01/26 13:27:15;;;;;;;12.20;9.47;;;3.80;99.90;;;;;;5095816;28;20216;-77
2022/01/26 13:29:57;;;;;;;12.53;10.20;;;3.80;99.90;;;;;;5087474;28;20208;-76
2022/01/26 13:35:29;;;;;;;14.07;9.53;;;3.80;99.90;;;;;;5084242;28;20220;-69
2022/01/26 13:38:15;;;;;;;11.97;8.90;;;3.90;99.90;;;;;;5088689;28;20205;-74
2022/01/26 13:40:52;;;;;;;14.30;9.50;;;3.90;99.90;;;;;;5092360;28;20213;-74
2022/01/26 13:49:23;;;;;;;15.37;8.93;;;4.00;99.90;;;;;;5090537;28;20303;-74
2022/01/26 13:52:04;;;;;;;11.80;8.13;;;4.00;99.90;;;;;;5093133;28;20323;-75
2022/01/26 13:55:02;;;;;;;13.20;8.93;;;4.00;99.90;;;;;;5097460;28;20197;-76
2022/01/26 13:58:16;;;;;;;13.77;8.50;;;4.10;99.90;;;;;;5096829;28;20228;-78
2022/01/26 14:00:43;;;;;;;12.73;8.47;;;4.20;99.90;;;;;;5097238;28;20204;-76
2022/01/26 14:03:12;;;;;;;15.57;8.80;;;4.10;99.90;;;;;;5097003;28;20231;-70
2022/01/26 14:05:39;;;;;;;13.40;8.50;;;4.10;99.90;;;;;;5085985;28;20228;-75
2022/01/26 14:08:06;;;;;;;17.13;10.13;;;4.10;99.90;;;;;;5091028;28;20264;-73
2022/01/26 14:10:36;;;;;;;14.77;8.70;;;4.20;99.90;;;;;;5092750;28;20196;-74
2022/01/26 14:13:04;;;;;;;9.97;7.60;;;4.20;99.90;;;;;;5096586;28;20296;-75
2022/01/26 14:15:41;;;;;;;11.77;7.93;;;4.20;99.90;;;;;;5091252;28;20303;-75
2022/01/26 14:18:34;;;;;;;12.57;8.13;;;4.20;99.90;;;;;;5083312;28;20209;-76
2022/01/26 14:21:10;;;;;;;12.57;7.83;;;4.20;99.90;;;;;;5091919;28;20207;-75
2022/01/26 14:26:26;;;;;;;10.27;7.33;;;4.20;99.90;;;;;;5089853;28;20259;-74
2022/01/26 14:28:53;;;;;;;11.00;7.90;;;4.10;99.90;;;;;;5091433;28;20563;-76
2022/01/26 14:31:29;;;;;;;13.60;8.80;;;4.10;99.90;;;;;;5097096;28;20300;-77
2022/01/26 14:40:25;;;;;;;11.83;8.27;;;4.20;99.90;;;;;;5074692;28;20197;-75
2022/01/26 14:51:16;;;;;;;12.33;7.90;;;4.20;99.90;;;;;;5081890;28;20688;-75
2022/01/26 14:54:10;;;;;;;12.13;8.00;;;4.20;99.90;;;;;;5080187;28;20562;-76
2022/01/26 15:19:35;;;;;;;16.83;12.07;;;4.20;99.90;;;;;;5084122;28;20227;-75
2022/01/26 15:30:24;;;;;;;20.43;12.97;;;4.30;99.90;;;;;;5090653;28;20257;-74
2022/01/26 15:40:00;;;;;;;18.17;12.67;;;4.40;99.90;;;;;;5092590;28;20195;-74